createdAt,value
2023-03-15T00:01:52.278Z,8.00
2023-03-15T00:04:18.872Z,8.00
2023-03-15T00:06:45.470Z,8.00
2023-03-15T00:09:12.071Z,8.00
2023-03-15T00:11:38.658Z,8.00
2023-03-15T00:14:06.162Z,8.00
2023-03-15T00:16:32.967Z,8.00
2023-03-15T00:19:00.471Z,8.02
2023-03-15T00:21:29.797Z,8.00
2023-03-15T00:23:57.499Z,8.02
2023-03-15T00:26:24.078Z,8.00
2023-03-15T00:28:50.853Z,8.00
2023-03-15T00:31:24.593Z,8.00
2023-03-15T00:33:55.714Z,8.00
2023-03-15T00:36:25.835Z,8.00
2023-03-15T00:38:56.519Z,8.00
2023-03-15T00:41:24.754Z,8.06
2023-03-15T00:43:52.845Z,8.04
2023-03-15T00:46:20.401Z,8.04
2023-03-15T00:48:52.095Z,8.00
2023-03-15T00:51:22.834Z,8.00
2023-03-15T00:53:51.975Z,7.90
2023-03-15T00:56:22.784Z,7.90
2023-03-15T00:58:52.889Z,7.90
2023-03-15T01:01:27.457Z,7.90
2023-03-15T01:03:54.831Z,7.90
2023-03-15T01:06:26.794Z,7.90
2023-03-15T01:08:57.360Z,7.98
2023-03-15T01:11:28.209Z,7.98
2023-03-15T01:13:58.565Z,7.90
2023-03-15T01:16:27.413Z,7.90
2023-03-15T01:18:54.756Z,7.82
2023-03-15T01:21:23.874Z,7.80
2023-03-15T01:23:51.587Z,7.80
2023-03-15T01:26:22.181Z,7.80
2023-03-15T01:28:49.342Z,7.80
2023-03-15T01:31:29.015Z,7.70
2023-03-15T01:33:57.801Z,7.70
2023-03-15T01:36:25.893Z,7.70
2023-03-15T01:38:55.022Z,7.70
2023-03-15T01:41:27.480Z,7.70
2023-03-15T01:43:54.573Z,7.70
2023-03-15T01:46:28.436Z,7.70
2023-03-15T01:49:31.848Z,7.70
2023-03-15T01:52:15.224Z,7.70
2023-03-15T01:55:11.189Z,7.60
2023-03-15T01:57:51.364Z,7.60
2023-03-15T02:00:21.911Z,7.60
2023-03-15T02:03:08.976Z,7.50
2023-03-15T02:05:46.632Z,7.46
2023-03-15T02:08:22.561Z,7.42
2023-03-15T02:10:58.658Z,7.42
2023-03-15T02:13:29.991Z,7.40
2023-03-15T02:15:58.691Z,7.40
2023-03-15T02:18:30.912Z,7.32
2023-03-15T02:21:15.034Z,7.30
2023-03-15T02:23:44.155Z,7.30
2023-03-15T02:26:30.183Z,7.20
2023-03-15T02:28:58.746Z,7.20
2023-03-15T02:31:26.829Z,7.20
2023-03-15T02:33:56.025Z,7.20
2023-03-15T02:36:32.001Z,7.10
2023-03-15T02:38:58.996Z,7.10
2023-03-15T02:41:35.025Z,7.10
2023-03-15T02:44:15.941Z,7.10
2023-03-15T02:46:46.569Z,7.10
2023-03-15T02:49:17.015Z,7.10
2023-03-15T02:51:43.734Z,7.20
2023-03-15T02:54:11.132Z,7.20
2023-03-15T02:56:37.737Z,7.20
2023-03-15T02:59:04.527Z,7.20
2023-03-15T03:01:31.797Z,7.20
2023-03-15T03:03:58.685Z,7.20
2023-03-15T03:06:25.280Z,7.20
2023-03-15T03:08:52.085Z,7.20
2023-03-15T03:11:19.401Z,7.20
2023-03-15T03:13:46.451Z,7.20
2023-03-15T03:16:13.554Z,7.20
2023-03-15T03:18:42.227Z,7.20
2023-03-15T03:21:09.656Z,7.20
2023-03-15T03:23:37.263Z,7.20
2023-03-15T03:26:11.941Z,7.20
2023-03-15T03:28:38.797Z,7.18
2023-03-15T03:31:05.625Z,7.10
2023-03-15T03:33:32.637Z,7.10
2023-03-15T03:36:04.403Z,7.10
2023-03-15T03:38:31.470Z,7.10
2023-03-15T03:40:59.909Z,7.10
2023-03-15T03:43:27.608Z,7.10
2023-03-15T03:45:54.386Z,7.10
2023-03-15T03:48:21.691Z,7.08
2023-03-15T03:50:48.294Z,7.08
2023-03-15T03:53:14.898Z,7.06
2023-03-15T03:55:42.692Z,7.00
2023-03-15T03:58:09.890Z,7.00
2023-03-15T04:00:46.741Z,7.00
2023-03-15T04:03:13.383Z,7.00
2023-03-15T04:05:45.233Z,7.00
2023-03-15T04:08:16.379Z,7.00
2023-03-15T04:10:43.432Z,7.00
2023-03-15T04:13:10.402Z,7.00
2023-03-15T04:15:37.235Z,7.00
2023-03-15T04:18:05.929Z,7.00
2023-03-15T04:20:37.967Z,7.00
2023-03-15T04:23:07.251Z,7.00
2023-03-15T04:25:58.112Z,7.30
2023-03-15T04:28:56.621Z,7.22
2023-03-15T04:31:49.648Z,7.20
2023-03-15T04:34:42.514Z,7.20
2023-03-15T04:37:25.632Z,7.10
2023-03-15T04:40:19.095Z,7.10
2023-03-15T04:42:57.184Z,7.10
2023-03-15T04:45:39.009Z,7.00
2023-03-15T04:48:23.134Z,7.00
2023-03-15T04:51:19.106Z,7.00
2023-03-15T04:53:56.314Z,7.00
2023-03-15T04:56:37.748Z,6.96
2023-03-15T04:59:14.992Z,6.90
2023-03-15T05:02:01.657Z,6.90
2023-03-15T05:04:35.920Z,6.90
2023-03-15T05:07:24.960Z,6.90
2023-03-15T05:10:23.207Z,6.80
2023-03-15T05:13:08.783Z,6.80
2023-03-15T05:15:58.749Z,6.80
2023-03-15T05:18:45.304Z,6.80
2023-03-15T05:21:32.695Z,6.80
2023-03-15T05:24:34.996Z,6.82
2023-03-15T05:27:20.954Z,6.82
2023-03-15T05:30:03.052Z,6.80
2023-03-15T05:32:57.558Z,6.80
2023-03-15T05:35:47.887Z,6.80
2023-03-15T05:38:37.704Z,6.80
2023-03-15T05:41:18.328Z,6.74
2023-03-15T05:43:53.808Z,6.70
2023-03-15T05:46:40.637Z,6.70
2023-03-15T05:49:27.099Z,6.70
2023-03-15T05:52:05.601Z,6.70
2023-03-15T05:54:44.905Z,6.68
2023-03-15T05:57:28.782Z,6.60
2023-03-15T06:00:16.273Z,6.60
2023-03-15T06:02:45.416Z,6.60
2023-03-15T06:05:25.361Z,6.54
2023-03-15T06:07:51.978Z,6.54
2023-03-15T06:10:20.213Z,6.52
2023-03-15T06:12:47.031Z,6.60
2023-03-15T06:15:15.121Z,6.60
2023-03-15T06:17:41.801Z,6.60
2023-03-15T06:20:10.433Z,6.60
2023-03-15T06:22:37.061Z,6.60
2023-03-15T06:25:09.960Z,6.70
2023-03-15T06:27:38.530Z,6.70
2023-03-15T06:30:06.794Z,6.70
2023-03-15T06:32:33.595Z,6.62
2023-03-15T06:35:00.577Z,6.70
2023-03-15T06:37:35.084Z,6.58
2023-03-15T06:40:08.238Z,6.50
2023-03-15T06:42:35.659Z,6.50
2023-03-15T06:45:03.463Z,6.42
2023-03-15T06:47:30.296Z,6.40
2023-03-15T06:49:57.080Z,6.30
2023-03-15T06:52:24.467Z,6.20
2023-03-15T06:54:51.199Z,6.00
2023-03-15T06:57:17.852Z,5.68
2023-03-15T06:59:44.453Z,5.30
2023-03-15T07:02:18.146Z,5.10
2023-03-15T07:04:45.484Z,4.80
2023-03-15T07:07:13.604Z,4.70
2023-03-15T07:09:40.808Z,4.50
2023-03-15T07:12:09.942Z,4.32
2023-03-15T07:14:36.789Z,4.30
2023-03-15T07:17:04.633Z,4.20
2023-03-15T07:19:31.379Z,4.20
2023-03-15T07:21:58.146Z,4.20
2023-03-15T07:24:24.902Z,4.20
2023-03-15T07:26:56.301Z,4.18
2023-03-15T07:29:24.655Z,4.12
2023-03-15T07:31:51.786Z,4.20
2023-03-15T07:34:18.695Z,4.20
2023-03-15T07:36:45.362Z,4.20
2023-03-15T07:39:12.032Z,4.20
2023-03-15T07:41:38.949Z,4.20
2023-03-15T07:44:12.954Z,4.18
2023-03-15T07:46:39.648Z,4.20
2023-03-15T07:49:06.613Z,4.10
2023-03-15T07:51:33.396Z,4.10
2023-03-15T07:54:00.017Z,4.08
2023-03-15T07:56:26.638Z,4.10
2023-03-15T07:58:53.306Z,4.06
2023-03-15T08:01:19.913Z,4.00
2023-03-15T08:03:46.544Z,4.00
2023-03-15T08:06:13.269Z,4.00
2023-03-15T08:08:40.541Z,4.00
2023-03-15T08:11:07.381Z,4.00
2023-03-15T08:13:34.065Z,4.00
2023-03-15T08:16:00.721Z,4.10
2023-03-15T08:18:29.180Z,4.10
2023-03-15T08:20:56.185Z,4.12
2023-03-15T08:23:23.432Z,4.20
2023-03-15T08:25:50.237Z,4.30
2023-03-15T08:28:17.015Z,4.40
2023-03-15T08:30:44.054Z,4.42
2023-03-15T08:33:12.384Z,4.50
2023-03-15T08:35:39.391Z,4.50
2023-03-15T08:38:06.235Z,4.56
2023-03-15T08:40:33.050Z,4.60
2023-03-15T08:43:00.017Z,4.70
2023-03-15T08:45:27.339Z,4.80
2023-03-15T08:47:59.943Z,4.86
2023-03-15T08:50:30.090Z,4.96
2023-03-15T08:52:56.694Z,5.10
2023-03-15T08:55:23.354Z,5.20
2023-03-15T08:57:50.059Z,5.30
2023-03-15T09:00:23.353Z,5.40
2023-03-15T09:02:52.398Z,5.56
2023-03-15T09:05:21.137Z,5.60
2023-03-15T09:07:48.463Z,5.60
2023-03-15T09:10:17.642Z,5.60
2023-03-15T09:12:51.238Z,5.60
2023-03-15T09:15:19.177Z,5.60
2023-03-15T09:17:46.284Z,5.68
2023-03-15T09:20:19.217Z,5.80
2023-03-15T09:22:57.027Z,6.00
2023-03-15T09:25:27.173Z,6.18
2023-03-15T09:27:54.532Z,6.32
2023-03-15T09:30:21.846Z,6.50
2023-03-15T09:32:49.864Z,6.80
2023-03-15T09:35:20.040Z,7.10
2023-03-15T09:37:48.990Z,7.30
2023-03-15T09:40:39.281Z,7.50
2023-03-15T09:43:13.946Z,7.76
2023-03-15T09:46:07.278Z,7.90
2023-03-15T09:48:59.834Z,8.02
2023-03-15T09:51:51.794Z,8.20
2023-03-15T09:54:27.107Z,8.26
2023-03-15T09:57:00.107Z,8.30
2023-03-15T09:59:35.992Z,8.40
2023-03-15T10:02:25.452Z,8.48
2023-03-15T10:05:18.951Z,8.58
2023-03-15T10:07:46.442Z,8.70
2023-03-15T10:10:28.157Z,8.60
2023-03-15T10:13:24.883Z,8.50
2023-03-15T10:16:16.365Z,8.50
2023-03-15T10:19:17.869Z,8.42
2023-03-15T10:22:18.276Z,8.40
2023-03-15T10:25:29.471Z,8.40
2023-03-15T10:28:08.053Z,8.48
2023-03-15T10:30:38.816Z,8.50
2023-03-15T10:33:34.767Z,8.50
2023-03-15T10:36:11.378Z,8.70
2023-03-15T10:38:39.099Z,8.80
2023-03-15T10:41:07.861Z,8.90
2023-03-15T10:43:37.425Z,9.00
2023-03-15T10:46:13.211Z,9.20
2023-03-15T10:48:59.969Z,9.34
2023-03-15T10:51:33.832Z,9.40
2023-03-15T10:54:25.009Z,9.44
2023-03-15T10:57:13.394Z,9.50
2023-03-15T11:00:09.748Z,9.50
2023-03-15T11:02:37.477Z,9.58
2023-03-15T11:05:10.141Z,9.50
2023-03-15T11:07:36.881Z,9.50
2023-03-15T11:10:07.067Z,9.56
2023-03-15T11:12:35.239Z,9.60
2023-03-15T11:15:07.839Z,9.60
2023-03-15T11:17:43.770Z,9.80
2023-03-15T11:20:30.821Z,9.94
2023-03-15T11:23:00.738Z,10.00
2023-03-15T11:25:31.769Z,10.00
2023-03-15T11:28:01.458Z,10.00
2023-03-15T11:30:31.437Z,9.90
2023-03-15T11:33:09.432Z,9.80
2023-03-15T11:35:48.617Z,9.70
2023-03-15T11:38:33.379Z,9.64
2023-03-15T11:41:05.096Z,9.74
2023-03-15T11:44:37.574Z,9.80
2023-03-15T11:47:21.233Z,10.14
2023-03-15T11:49:56.566Z,10.40
2023-03-15T11:52:27.067Z,10.20
2023-03-15T11:55:01.113Z,10.00
2023-03-15T11:57:42.710Z,9.90
2023-03-15T12:00:44.753Z,9.88
2023-03-15T12:03:38.571Z,10.10
2023-03-15T12:06:37.143Z,10.30
2023-03-15T12:09:32.870Z,10.28
2023-03-15T12:12:06.688Z,10.22
2023-03-15T12:14:37.672Z,10.00
2023-03-15T12:17:28.865Z,9.72
2023-03-15T12:20:26.407Z,9.60
2023-03-15T12:23:17.994Z,9.50
2023-03-15T12:26:06.538Z,9.50
2023-03-15T12:28:41.305Z,9.58
2023-03-15T12:31:13.395Z,9.78
2023-03-15T12:33:58.709Z,9.96
2023-03-15T12:36:39.962Z,9.90
2023-03-15T12:39:09.717Z,10.04
2023-03-15T12:41:46.759Z,10.20
2023-03-15T12:44:32.138Z,10.30
2023-03-15T12:47:01.620Z,10.20
2023-03-15T12:49:46.151Z,10.00
2023-03-15T12:52:15.881Z,10.10
2023-03-15T12:54:45.368Z,10.10
2023-03-15T12:57:17.656Z,10.04
2023-03-15T13:00:00.594Z,10.00
2023-03-15T13:02:43.806Z,9.82
2023-03-15T13:05:31.010Z,9.80
2023-03-15T13:08:30.149Z,9.82
2023-03-15T13:11:11.157Z,9.68
2023-03-15T13:14:41.620Z,9.50
2023-03-15T13:17:23.604Z,9.48
2023-03-15T13:20:13.733Z,9.30
2023-03-15T13:23:09.489Z,9.30
2023-03-15T13:26:02.640Z,9.10
2023-03-15T13:28:42.386Z,9.08
2023-03-15T13:31:24.526Z,9.00
2023-03-15T13:33:58.160Z,9.00
2023-03-15T13:36:45.928Z,8.90
2023-03-15T13:39:25.800Z,8.84
2023-03-15T13:42:19.354Z,8.78
2023-03-15T13:44:45.976Z,8.70
2023-03-15T13:47:22.040Z,8.60
2023-03-15T13:49:52.874Z,8.60
2023-03-15T13:52:20.114Z,8.50
2023-03-15T13:54:46.834Z,8.40
2023-03-15T13:57:19.426Z,8.40
2023-03-15T14:00:11.845Z,8.36
2023-03-15T14:02:48.290Z,8.40
2023-03-15T14:05:27.657Z,8.40
2023-03-15T14:08:13.224Z,8.40
2023-03-15T14:10:40.641Z,8.30
2023-03-15T14:13:36.300Z,8.20
2023-03-15T14:16:16.948Z,8.08
2023-03-15T14:18:44.012Z,8.02
2023-03-15T14:21:18.528Z,8.00
2023-03-15T14:23:48.779Z,8.00
2023-03-15T14:26:28.203Z,7.98
2023-03-15T14:29:05.250Z,8.06
2023-03-15T14:31:41.940Z,8.10
2023-03-15T14:34:23.819Z,8.10
2023-03-15T14:36:54.072Z,8.14
2023-03-15T14:39:42.443Z,8.20
2023-03-15T14:42:12.181Z,8.20
2023-03-15T14:44:39.051Z,8.30
2023-03-15T14:47:16.900Z,8.30
2023-03-15T14:49:43.717Z,8.30
2023-03-15T14:52:14.639Z,8.40
2023-03-15T14:54:49.613Z,8.40
2023-03-15T14:57:16.588Z,8.40
2023-03-15T14:59:43.921Z,8.34
2023-03-15T15:02:18.320Z,8.30
2023-03-15T15:04:48.067Z,8.20
2023-03-15T15:07:17.549Z,8.10
2023-03-15T15:09:50.684Z,8.02
2023-03-15T15:12:19.048Z,8.00
2023-03-15T15:14:45.674Z,7.90
2023-03-15T15:17:12.333Z,7.94
2023-03-15T15:19:38.928Z,7.94
2023-03-15T15:22:05.592Z,7.90
2023-03-15T15:24:32.274Z,7.80
2023-03-15T15:26:59.151Z,7.80
2023-03-15T15:29:25.785Z,7.80
2023-03-15T15:31:52.686Z,7.78
2023-03-15T15:34:19.347Z,7.70
2023-03-15T15:36:46.523Z,7.62
2023-03-15T15:39:27.536Z,7.60
2023-03-15T15:41:54.294Z,7.50
2023-03-15T15:44:25.472Z,7.48
2023-03-15T15:46:52.659Z,7.40
2023-03-15T15:49:23.450Z,7.32
2023-03-15T15:51:50.557Z,7.30
2023-03-15T15:54:26.538Z,7.30
2023-03-15T15:56:57.292Z,7.30
2023-03-15T15:59:25.726Z,7.24
2023-03-15T16:02:02.824Z,7.20
2023-03-15T16:04:30.851Z,7.20
2023-03-15T16:07:02.633Z,7.20
2023-03-15T16:09:35.937Z,7.14
2023-03-15T16:12:11.031Z,7.10
2023-03-15T16:14:37.601Z,7.10
2023-03-15T16:17:19.078Z,7.06
2023-03-15T16:19:45.807Z,7.04
2023-03-15T16:22:12.898Z,7.00
2023-03-15T16:24:45.345Z,7.00
2023-03-15T16:27:15.604Z,7.00
2023-03-15T16:29:47.509Z,6.94
2023-03-15T16:32:24.377Z,6.90
2023-03-15T16:34:57.192Z,6.90
2023-03-15T16:37:29.418Z,6.86
2023-03-15T16:39:57.408Z,6.80
2023-03-15T16:42:25.618Z,6.72
2023-03-15T16:44:53.323Z,6.70
2023-03-15T16:47:20.688Z,6.60
2023-03-15T16:49:47.331Z,6.60
2023-03-15T16:52:17.150Z,6.60
2023-03-15T16:54:47.619Z,6.50
2023-03-15T16:57:23.194Z,6.50
2023-03-15T16:59:51.290Z,6.50
2023-03-15T17:02:24.146Z,6.50
2023-03-15T17:04:53.001Z,6.60
2023-03-15T17:07:31.356Z,6.50
2023-03-15T17:10:01.479Z,6.50
2023-03-15T17:12:29.566Z,6.50
2023-03-15T17:14:59.025Z,6.44
2023-03-15T17:17:33.178Z,6.50
2023-03-15T17:20:00.693Z,6.50
2023-03-15T17:22:28.304Z,6.48
2023-03-15T17:24:55.231Z,6.46
2023-03-15T17:27:33.246Z,6.46
2023-03-15T17:30:00.060Z,6.46
2023-03-15T17:32:26.772Z,6.44
2023-03-15T17:34:59.090Z,6.46
2023-03-15T17:37:33.821Z,6.44
2023-03-15T17:40:01.151Z,6.44
2023-03-15T17:42:27.818Z,6.40
2023-03-15T17:44:54.686Z,6.40
2023-03-15T17:47:21.325Z,6.40
2023-03-15T17:49:48.266Z,6.40
2023-03-15T17:52:17.249Z,6.30
2023-03-15T17:54:44.161Z,6.30
2023-03-15T17:57:12.868Z,6.30
2023-03-15T17:59:39.706Z,6.18
2023-03-15T18:02:15.860Z,6.20
2023-03-15T18:04:42.702Z,6.20
2023-03-15T18:07:09.442Z,6.20
2023-03-15T18:09:36.105Z,6.16
2023-03-15T18:12:03.338Z,6.10
2023-03-15T18:14:31.029Z,6.00
2023-03-15T18:16:57.979Z,5.98
2023-03-15T18:19:25.407Z,5.90
2023-03-15T18:21:51.978Z,5.90
2023-03-15T18:24:19.294Z,5.90
2023-03-15T18:26:45.895Z,5.90
2023-03-15T18:29:12.871Z,5.80
2023-03-15T18:31:40.582Z,5.80
2023-03-15T18:34:07.400Z,5.80
2023-03-15T18:36:34.037Z,5.80
2023-03-15T18:39:01.877Z,5.80
2023-03-15T18:41:28.492Z,5.80
2023-03-15T18:43:55.138Z,5.80
2023-03-15T18:46:24.986Z,5.80
2023-03-15T18:48:53.521Z,5.70
2023-03-15T18:51:25.565Z,5.70
2023-03-15T18:53:53.103Z,5.70
2023-03-15T18:56:23.998Z,5.70
2023-03-15T18:58:53.263Z,5.70
2023-03-15T19:01:22.800Z,5.70
2023-03-15T19:03:51.479Z,5.70
2023-03-15T19:06:19.219Z,5.70
2023-03-15T19:08:46.348Z,5.70
2023-03-15T19:11:13.031Z,5.70
2023-03-15T19:13:39.862Z,5.70
2023-03-15T19:16:06.780Z,5.60
2023-03-15T19:18:33.975Z,5.60
2023-03-15T19:21:02.536Z,5.60
2023-03-15T19:23:29.199Z,5.60
2023-03-15T19:25:55.907Z,5.60
2023-03-15T19:28:22.569Z,5.54
2023-03-15T19:30:49.417Z,5.50
2023-03-15T19:33:16.665Z,5.50
2023-03-15T19:35:43.395Z,5.50
2023-03-15T19:38:11.002Z,5.50
2023-03-15T19:40:37.901Z,5.50
2023-03-15T19:43:04.513Z,5.46
2023-03-15T19:45:31.142Z,5.44
2023-03-15T19:47:57.927Z,5.42
2023-03-15T19:50:24.797Z,5.40
2023-03-15T19:52:51.497Z,5.40
2023-03-15T19:55:21.919Z,5.40
2023-03-15T19:57:48.538Z,5.46
2023-03-15T20:00:19.221Z,5.40
2023-03-15T20:02:47.183Z,5.40
2023-03-15T20:05:18.830Z,5.42
2023-03-15T20:07:47.296Z,5.44
2023-03-15T20:10:15.240Z,5.48
2023-03-15T20:12:42.749Z,5.50
2023-03-15T20:15:12.317Z,5.50
2023-03-15T20:17:41.535Z,5.50
2023-03-15T20:20:11.353Z,5.50
2023-03-15T20:22:41.399Z,5.50
2023-03-15T20:25:10.954Z,5.50
2023-03-15T20:27:38.850Z,5.40
2023-03-15T20:30:08.304Z,5.40
2023-03-15T20:32:34.991Z,5.40
2023-03-15T20:35:02.358Z,5.40
2023-03-15T20:37:31.057Z,5.38
2023-03-15T20:39:57.668Z,5.40
2023-03-15T20:42:24.900Z,5.40
2023-03-15T20:44:52.750Z,5.40
2023-03-15T20:47:19.399Z,5.34
2023-03-15T20:49:46.023Z,5.32
2023-03-15T20:52:12.665Z,5.30
2023-03-15T20:54:39.390Z,5.26
2023-03-15T20:57:07.094Z,5.20
2023-03-15T20:59:33.758Z,5.18
2023-03-15T21:02:00.884Z,5.10
2023-03-15T21:04:28.493Z,5.10
2023-03-15T21:06:55.688Z,5.10
2023-03-15T21:09:22.525Z,5.10
2023-03-15T21:11:49.171Z,5.06
2023-03-15T21:14:15.785Z,5.00
2023-03-15T21:16:44.695Z,4.94
2023-03-15T21:19:11.344Z,4.90
2023-03-15T21:21:37.920Z,4.90
2023-03-15T21:24:06.365Z,4.80
2023-03-15T21:26:33.039Z,4.70
2023-03-15T21:28:59.682Z,4.66
2023-03-15T21:31:26.305Z,4.60
2023-03-15T21:33:53.068Z,4.54
2023-03-15T21:36:19.757Z,4.50
2023-03-15T21:38:46.401Z,4.42
2023-03-15T21:41:13.273Z,4.40
2023-03-15T21:43:39.931Z,4.30
2023-03-15T21:46:12.981Z,4.30
2023-03-15T21:48:41.964Z,4.22
2023-03-15T21:51:10.506Z,4.20
2023-03-15T21:53:37.196Z,4.20
2023-03-15T21:56:05.130Z,4.10
2023-03-15T21:58:32.272Z,4.10
2023-03-15T22:01:06.611Z,4.00
2023-03-15T22:03:35.663Z,4.00
2023-03-15T22:06:02.390Z,3.94
2023-03-15T22:08:29.227Z,3.90
2023-03-15T22:10:58.659Z,3.88
2023-03-15T22:13:27.130Z,3.80
2023-03-15T22:15:54.122Z,3.80
2023-03-15T22:18:21.494Z,3.80
2023-03-15T22:20:50.967Z,3.76
2023-03-15T22:23:18.414Z,3.70
2023-03-15T22:25:45.057Z,3.70
2023-03-15T22:28:11.672Z,3.70
2023-03-15T22:30:39.637Z,3.64
2023-03-15T22:33:06.594Z,3.60
2023-03-15T22:35:33.969Z,3.60
2023-03-15T22:38:00.666Z,3.60
2023-03-15T22:40:28.333Z,3.60
2023-03-15T22:42:57.207Z,3.60
2023-03-15T22:45:26.074Z,3.60
2023-03-15T22:47:53.432Z,3.60
2023-03-15T22:50:20.430Z,3.56
2023-03-15T22:52:47.834Z,3.50
2023-03-15T22:55:14.899Z,3.50
2023-03-15T22:57:41.440Z,3.50
2023-03-15T23:00:14.747Z,3.50
2023-03-15T23:02:44.949Z,3.50
2023-03-15T23:05:13.537Z,3.50
2023-03-15T23:07:40.199Z,3.50
2023-03-15T23:10:10.672Z,3.50
2023-03-15T23:12:37.385Z,3.50
2023-03-15T23:15:05.778Z,3.50
2023-03-15T23:17:32.384Z,3.50
2023-03-15T23:19:59.025Z,3.40
2023-03-15T23:22:25.660Z,3.40
2023-03-15T23:24:52.500Z,3.32
2023-03-15T23:27:19.202Z,3.30
2023-03-15T23:29:54.218Z,3.28
2023-03-15T23:32:24.803Z,3.20
2023-03-15T23:34:53.706Z,3.20
2023-03-15T23:37:21.344Z,3.14
2023-03-15T23:39:47.987Z,3.10
2023-03-15T23:42:14.578Z,3.10
2023-03-15T23:44:41.258Z,3.04
2023-03-15T23:47:08.181Z,3.00
2023-03-15T23:49:34.773Z,2.98
2023-03-15T23:52:05.414Z,2.90
2023-03-15T23:54:39.553Z,2.90
2023-03-15T23:57:09.145Z,2.90
2023-03-15T23:59:37.860Z,2.80
